sensor_id;sensor_type;location;lat;lon;timestamp;P1;durP1;ratioP1;P2;durP2;ratioP2
64932;SDS011;51446;53.850;10.662;2023-04-24T00:02:21;3.60;;;3.30;;
64932;SDS011;51446;53.850;10.662;2023-04-24T00:04:47;3.10;;;2.85;;
64932;SDS011;51446;53.850;10.662;2023-04-24T00:07:13;3.20;;;2.90;;
64932;SDS011;51446;53.850;10.662;2023-04-24T00:09:42;4.38;;;3.20;;
64932;SDS011;51446;53.850;10.662;2023-04-24T00:12:08;3.70;;;2.85;;
64932;SDS011;51446;53.850;10.662;2023-04-24T00:14:34;3.42;;;3.13;;
64932;SDS011;51446;53.850;10.662;2023-04-24T00:17:00;4.00;;;3.07;;
64932;SDS011;51446;53.850;10.662;2023-04-24T00:19:27;3.40;;;3.10;;
64932;SDS011;51446;53.850;10.662;2023-04-24T00:21:53;3.47;;;3.17;;
64932;SDS011;51446;53.850;10.662;2023-04-24T00:24:18;3.60;;;3.30;;
64932;SDS011;51446;53.850;10.662;2023-04-24T00:26:44;3.20;;;3.00;;
64932;SDS011;51446;53.850;10.662;2023-04-24T00:29:09;3.23;;;2.97;;
64932;SDS011;51446;53.850;10.662;2023-04-24T00:31:34;3.20;;;2.90;;
64932;SDS011;51446;53.850;10.662;2023-04-24T00:34:00;4.27;;;3.30;;
64932;SDS011;51446;53.850;10.662;2023-04-24T00:36:26;3.42;;;3.13;;
64932;SDS011;51446;53.850;10.662;2023-04-24T00:38:51;5.00;;;3.60;;
64932;SDS011;51446;53.850;10.662;2023-04-24T00:41:17;5.47;;;3.83;;
64932;SDS011;51446;53.850;10.662;2023-04-24T00:43:42;3.80;;;3.33;;
64932;SDS011;51446;53.850;10.662;2023-04-24T00:46:08;3.70;;;3.40;;
64932;SDS011;51446;53.850;10.662;2023-04-24T00:48:33;5.38;;;3.53;;
64932;SDS011;51446;53.850;10.662;2023-04-24T00:50:59;3.97;;;3.17;;
64932;SDS011;51446;53.850;10.662;2023-04-24T00:53:24;4.10;;;3.70;;
64932;SDS011;51446;53.850;10.662;2023-04-24T00:55:50;5.03;;;3.67;;
64932;SDS011;51446;53.850;10.662;2023-04-24T00:58:16;3.77;;;3.47;;
64932;SDS011;51446;53.850;10.662;2023-04-24T01:00:41;4.38;;;3.20;;
64932;SDS011;51446;53.850;10.662;2023-04-24T01:03:06;4.63;;;3.60;;
64932;SDS011;51446;53.850;10.662;2023-04-24T01:05:32;5.20;;;3.80;;
64932;SDS011;51446;53.850;10.662;2023-04-24T01:07:58;5.60;;;3.83;;
64932;SDS011;51446;53.850;10.662;2023-04-24T01:10:24;4.38;;;3.97;;
64932;SDS011;51446;53.850;10.662;2023-04-24T01:12:51;4.35;;;3.95;;
64932;SDS011;51446;53.850;10.662;2023-04-24T01:15:17;4.57;;;4.13;;
64932;SDS011;51446;53.850;10.662;2023-04-24T01:17:42;4.30;;;3.78;;
64932;SDS011;51446;53.850;10.662;2023-04-24T01:20:07;4.40;;;4.00;;
64932;SDS011;51446;53.850;10.662;2023-04-24T01:22:34;5.70;;;4.30;;
64932;SDS011;51446;53.850;10.662;2023-04-24T01:24:59;4.73;;;3.93;;
64932;SDS011;51446;53.850;10.662;2023-04-24T01:27:25;5.75;;;4.28;;
64932;SDS011;51446;53.850;10.662;2023-04-24T01:29:50;5.10;;;4.57;;
64932;SDS011;51446;53.850;10.662;2023-04-24T01:32:16;5.07;;;4.55;;
64932;SDS011;51446;53.850;10.662;2023-04-24T01:34:43;4.95;;;4.40;;
64932;SDS011;51446;53.850;10.662;2023-04-24T01:37:09;4.82;;;4.32;;
64932;SDS011;51446;53.850;10.662;2023-04-24T01:39:34;5.77;;;4.07;;
64932;SDS011;51446;53.850;10.662;2023-04-24T01:42:00;4.43;;;4.03;;
64932;SDS011;51446;53.850;10.662;2023-04-24T01:44:27;4.82;;;4.03;;
64932;SDS011;51446;53.850;10.662;2023-04-24T01:46:52;4.73;;;4.27;;
64932;SDS011;51446;53.850;10.662;2023-04-24T01:49:20;7.93;;;4.55;;
64932;SDS011;51446;53.850;10.662;2023-04-24T01:51:45;6.13;;;4.20;;
64932;SDS011;51446;53.850;10.662;2023-04-24T01:54:11;4.65;;;4.15;;
64932;SDS011;51446;53.850;10.662;2023-04-24T01:56:37;4.65;;;3.92;;
64932;SDS011;51446;53.850;10.662;2023-04-24T01:59:06;5.13;;;4.60;;
64932;SDS011;51446;53.850;10.662;2023-04-24T02:01:37;7.50;;;4.22;;
64932;SDS011;51446;53.850;10.662;2023-04-24T02:04:04;5.90;;;3.90;;
64932;SDS011;51446;53.850;10.662;2023-04-24T02:06:30;5.07;;;4.13;;
64932;SDS011;51446;53.850;10.662;2023-04-24T02:08:57;6.65;;;4.13;;
64932;SDS011;51446;53.850;10.662;2023-04-24T02:11:23;4.33;;;3.90;;
64932;SDS011;51446;53.850;10.662;2023-04-24T02:13:48;4.43;;;3.80;;
64932;SDS011;51446;53.850;10.662;2023-04-24T02:16:14;4.35;;;3.95;;
64932;SDS011;51446;53.850;10.662;2023-04-24T02:18:39;8.32;;;4.30;;
64932;SDS011;51446;53.850;10.662;2023-04-24T02:21:04;4.27;;;3.87;;
64932;SDS011;51446;53.850;10.662;2023-04-24T02:23:30;5.40;;;3.90;;
64932;SDS011;51446;53.850;10.662;2023-04-24T02:25:55;7.30;;;3.77;;
64932;SDS011;51446;53.850;10.662;2023-04-24T02:28:20;4.50;;;3.80;;
64932;SDS011;51446;53.850;10.662;2023-04-24T02:30:46;5.13;;;4.07;;
64932;SDS011;51446;53.850;10.662;2023-04-24T02:33:11;5.17;;;3.97;;
64932;SDS011;51446;53.850;10.662;2023-04-24T02:35:36;4.70;;;3.90;;
64932;SDS011;51446;53.850;10.662;2023-04-24T02:38:02;4.60;;;4.00;;
64932;SDS011;51446;53.850;10.662;2023-04-24T02:40:28;5.00;;;4.40;;
64932;SDS011;51446;53.850;10.662;2023-04-24T02:42:54;4.93;;;4.13;;
64932;SDS011;51446;53.850;10.662;2023-04-24T02:45:19;7.23;;;4.37;;
64932;SDS011;51446;53.850;10.662;2023-04-24T02:47:44;5.13;;;4.60;;
64932;SDS011;51446;53.850;10.662;2023-04-24T02:50:09;4.83;;;4.03;;
64932;SDS011;51446;53.850;10.662;2023-04-24T02:52:35;5.50;;;4.50;;
64932;SDS011;51446;53.850;10.662;2023-04-24T02:55:00;6.13;;;4.50;;
64932;SDS011;51446;53.850;10.662;2023-04-24T02:57:25;6.15;;;4.28;;
64932;SDS011;51446;53.850;10.662;2023-04-24T02:59:50;4.90;;;4.50;;
64932;SDS011;51446;53.850;10.662;2023-04-24T03:02:16;4.47;;;4.03;;
64932;SDS011;51446;53.850;10.662;2023-04-24T03:04:41;7.30;;;4.47;;
64932;SDS011;51446;53.850;10.662;2023-04-24T03:07:09;5.40;;;4.20;;
64932;SDS011;51446;53.850;10.662;2023-04-24T03:09:34;5.53;;;4.60;;
64932;SDS011;51446;53.850;10.662;2023-04-24T03:11:59;5.13;;;4.53;;
64932;SDS011;51446;53.850;10.662;2023-04-24T03:14:25;7.30;;;4.55;;
64932;SDS011;51446;53.850;10.662;2023-04-24T03:16:50;6.20;;;4.80;;
64932;SDS011;51446;53.850;10.662;2023-04-24T03:19:15;6.00;;;4.53;;
64932;SDS011;51446;53.850;10.662;2023-04-24T03:21:41;6.50;;;4.97;;
64932;SDS011;51446;53.850;10.662;2023-04-24T03:24:07;4.97;;;4.47;;
64932;SDS011;51446;53.850;10.662;2023-04-24T03:26:33;5.57;;;4.63;;
64932;SDS011;51446;53.850;10.662;2023-04-24T03:28:58;4.90;;;4.10;;
64932;SDS011;51446;53.850;10.662;2023-04-24T03:31:23;5.53;;;4.33;;
64932;SDS011;51446;53.850;10.662;2023-04-24T03:33:49;5.67;;;4.30;;
64932;SDS011;51446;53.850;10.662;2023-04-24T03:36:14;5.37;;;4.63;;
64932;SDS011;51446;53.850;10.662;2023-04-24T03:38:40;5.20;;;4.53;;
64932;SDS011;51446;53.850;10.662;2023-04-24T03:41:05;5.03;;;4.03;;
64932;SDS011;51446;53.850;10.662;2023-04-24T03:43:30;4.30;;;3.90;;
64932;SDS011;51446;53.850;10.662;2023-04-24T03:45:58;5.70;;;4.20;;
64932;SDS011;51446;53.850;10.662;2023-04-24T03:48:23;4.32;;;3.53;;
64932;SDS011;51446;53.850;10.662;2023-04-24T03:50:48;3.92;;;3.53;;
64932;SDS011;51446;53.850;10.662;2023-04-24T03:53:13;3.80;;;3.50;;
64932;SDS011;51446;53.850;10.662;2023-04-24T03:55:39;5.90;;;3.10;;
64932;SDS011;51446;53.850;10.662;2023-04-24T03:58:04;4.23;;;2.93;;
64932;SDS011;51446;53.850;10.662;2023-04-24T04:00:29;3.30;;;2.87;;
64932;SDS011;51446;53.850;10.662;2023-04-24T04:02:56;5.90;;;3.33;;
64932;SDS011;51446;53.850;10.662;2023-04-24T04:05:21;3.33;;;2.80;;
64932;SDS011;51446;53.850;10.662;2023-04-24T04:07:47;2.80;;;2.60;;
64932;SDS011;51446;53.850;10.662;2023-04-24T04:10:12;3.10;;;2.80;;
64932;SDS011;51446;53.850;10.662;2023-04-24T04:12:37;2.92;;;2.72;;
64932;SDS011;51446;53.850;10.662;2023-04-24T04:15:02;2.60;;;2.42;;
64932;SDS011;51446;53.850;10.662;2023-04-24T04:17:28;3.00;;;2.70;;
64932;SDS011;51446;53.850;10.662;2023-04-24T04:19:53;2.87;;;2.67;;
64932;SDS011;51446;53.850;10.662;2023-04-24T04:22:20;3.42;;;2.72;;
64932;SDS011;51446;53.850;10.662;2023-04-24T04:24:45;2.90;;;2.60;;
64932;SDS011;51446;53.850;10.662;2023-04-24T04:27:11;3.42;;;2.70;;
64932;SDS011;51446;53.850;10.662;2023-04-24T04:29:37;3.00;;;2.80;;
64932;SDS011;51446;53.850;10.662;2023-04-24T04:32:03;4.15;;;2.70;;
64932;SDS011;51446;53.850;10.662;2023-04-24T04:34:28;3.27;;;2.90;;
64932;SDS011;51446;53.850;10.662;2023-04-24T04:36:54;2.97;;;2.70;;
64932;SDS011;51446;53.850;10.662;2023-04-24T04:39:20;2.50;;;2.30;;
64932;SDS011;51446;53.850;10.662;2023-04-24T04:41:45;3.20;;;2.90;;
64932;SDS011;51446;53.850;10.662;2023-04-24T04:44:13;3.10;;;2.80;;
64932;SDS011;51446;53.850;10.662;2023-04-24T04:46:39;3.20;;;2.90;;
64932;SDS011;51446;53.850;10.662;2023-04-24T04:49:06;4.35;;;2.58;;
64932;SDS011;51446;53.850;10.662;2023-04-24T04:51:33;3.60;;;2.53;;
64932;SDS011;51446;53.850;10.662;2023-04-24T04:53:58;3.75;;;2.30;;
64932;SDS011;51446;53.850;10.662;2023-04-24T04:56:24;2.60;;;2.40;;
64932;SDS011;51446;53.850;10.662;2023-04-24T04:58:49;4.20;;;2.27;;
64932;SDS011;51446;53.850;10.662;2023-04-24T05:01:15;3.90;;;2.43;;
64932;SDS011;51446;53.850;10.662;2023-04-24T05:03:40;2.53;;;2.33;;
64932;SDS011;51446;53.850;10.662;2023-04-24T05:06:05;4.37;;;3.10;;
64932;SDS011;51446;53.850;10.662;2023-04-24T05:08:31;9.80;;;5.97;;
64932;SDS011;51446;53.850;10.662;2023-04-24T05:10:56;4.90;;;3.17;;
64932;SDS011;51446;53.850;10.662;2023-04-24T05:13:21;3.60;;;2.27;;
64932;SDS011;51446;53.850;10.662;2023-04-24T05:15:47;2.30;;;2.10;;
64932;SDS011;51446;53.850;10.662;2023-04-24T05:18:12;3.80;;;1.90;;
64932;SDS011;51446;53.850;10.662;2023-04-24T05:20:37;1.97;;;1.87;;
64932;SDS011;51446;53.850;10.662;2023-04-24T05:23:02;2.60;;;2.20;;
64932;SDS011;51446;53.850;10.662;2023-04-24T05:25:28;2.50;;;2.10;;
64932;SDS011;51446;53.850;10.662;2023-04-24T05:27:53;2.77;;;2.07;;
64932;SDS011;51446;53.850;10.662;2023-04-24T05:30:19;8.35;;;5.63;;
64932;SDS011;51446;53.850;10.662;2023-04-24T05:32:44;2.57;;;2.17;;
64932;SDS011;51446;53.850;10.662;2023-04-24T05:35:10;2.05;;;1.85;;
64932;SDS011;51446;53.850;10.662;2023-04-24T05:37:36;1.83;;;1.73;;
64932;SDS011;51446;53.850;10.662;2023-04-24T05:40:01;1.83;;;1.73;;
64932;SDS011;51446;53.850;10.662;2023-04-24T05:42:29;1.67;;;1.57;;
64932;SDS011;51446;53.850;10.662;2023-04-24T05:44:54;2.50;;;1.70;;
64932;SDS011;51446;53.850;10.662;2023-04-24T05:47:20;1.80;;;1.40;;
64932;SDS011;51446;53.850;10.662;2023-04-24T05:49:46;1.60;;;1.50;;
64932;SDS011;51446;53.850;10.662;2023-04-24T05:52:12;1.67;;;1.58;;
64932;SDS011;51446;53.850;10.662;2023-04-24T05:54:37;2.73;;;1.67;;
64932;SDS011;51446;53.850;10.662;2023-04-24T05:57:03;2.03;;;1.50;;
64932;SDS011;51446;53.850;10.662;2023-04-24T05:59:32;2.22;;;1.60;;
64932;SDS011;51446;53.850;10.662;2023-04-24T06:01:57;2.73;;;1.70;;
64932;SDS011;51446;53.850;10.662;2023-04-24T06:04:23;1.73;;;1.47;;
64932;SDS011;51446;53.850;10.662;2023-04-24T06:06:48;2.43;;;1.40;;
64932;SDS011;51446;53.850;10.662;2023-04-24T06:09:15;1.55;;;1.45;;
64932;SDS011;51446;53.850;10.662;2023-04-24T06:11:41;2.20;;;1.33;;
64932;SDS011;51446;53.850;10.662;2023-04-24T06:14:07;2.20;;;1.30;;
64932;SDS011;51446;53.850;10.662;2023-04-24T06:16:32;1.60;;;1.30;;
64932;SDS011;51446;53.850;10.662;2023-04-24T06:18:58;1.67;;;1.30;;
64932;SDS011;51446;53.850;10.662;2023-04-24T06:21:23;1.77;;;1.13;;
64932;SDS011;51446;53.850;10.662;2023-04-24T06:23:48;1.33;;;0.90;;
64932;SDS011;51446;53.850;10.662;2023-04-24T06:26:14;0.90;;;0.90;;
64932;SDS011;51446;53.850;10.662;2023-04-24T06:28:40;1.53;;;1.00;;
64932;SDS011;51446;53.850;10.662;2023-04-24T06:31:05;3.40;;;1.03;;
64932;SDS011;51446;53.850;10.662;2023-04-24T06:33:30;1.13;;;1.03;;
64932;SDS011;51446;53.850;10.662;2023-04-24T06:35:55;1.37;;;1.00;;
64932;SDS011;51446;53.850;10.662;2023-04-24T06:38:21;0.85;;;0.85;;
64932;SDS011;51446;53.850;10.662;2023-04-24T06:40:46;1.07;;;0.73;;
64932;SDS011;51446;53.850;10.662;2023-04-24T06:43:11;3.10;;;1.00;;
64932;SDS011;51446;53.850;10.662;2023-04-24T06:45:37;0.80;;;0.80;;
64932;SDS011;51446;53.850;10.662;2023-04-24T06:48:04;1.75;;;1.00;;
64932;SDS011;51446;53.850;10.662;2023-04-24T06:50:29;2.80;;;0.93;;
64932;SDS011;51446;53.850;10.662;2023-04-24T06:52:54;1.30;;;0.90;;
64932;SDS011;51446;53.850;10.662;2023-04-24T06:55:19;1.73;;;0.80;;
64932;SDS011;51446;53.850;10.662;2023-04-24T06:57:45;1.10;;;0.83;;
64932;SDS011;51446;53.850;10.662;2023-04-24T07:00:10;1.03;;;0.80;;
64932;SDS011;51446;53.850;10.662;2023-04-24T07:02:36;1.92;;;0.75;;
64932;SDS011;51446;53.850;10.662;2023-04-24T07:05:02;1.27;;;0.88;;
64932;SDS011;51446;53.850;10.662;2023-04-24T07:07:28;1.57;;;0.80;;
64932;SDS011;51446;53.850;10.662;2023-04-24T07:09:53;4.03;;;1.07;;
64932;SDS011;51446;53.850;10.662;2023-04-24T07:12:19;1.30;;;0.80;;
64932;SDS011;51446;53.850;10.662;2023-04-24T07:14:46;1.17;;;1.00;;
64932;SDS011;51446;53.850;10.662;2023-04-24T07:17:11;1.20;;;0.90;;
64932;SDS011;51446;53.850;10.662;2023-04-24T07:19:38;1.10;;;1.00;;
64932;SDS011;51446;53.850;10.662;2023-04-24T07:22:03;0.80;;;0.80;;
64932;SDS011;51446;53.850;10.662;2023-04-24T07:24:28;1.00;;;0.90;;
64932;SDS011;51446;53.850;10.662;2023-04-24T07:26:53;1.30;;;0.90;;
64932;SDS011;51446;53.850;10.662;2023-04-24T07:29:20;3.03;;;1.10;;
64932;SDS011;51446;53.850;10.662;2023-04-24T07:31:45;1.20;;;1.00;;
64932;SDS011;51446;53.850;10.662;2023-04-24T07:34:11;0.90;;;0.90;;
64932;SDS011;51446;53.850;10.662;2023-04-24T07:36:36;1.47;;;1.00;;
64932;SDS011;51446;53.850;10.662;2023-04-24T07:39:03;2.70;;;1.00;;
64932;SDS011;51446;53.850;10.662;2023-04-24T07:41:29;1.23;;;0.90;;
64932;SDS011;51446;53.850;10.662;2023-04-24T07:43:54;2.27;;;1.57;;
64932;SDS011;51446;53.850;10.662;2023-04-24T07:46:20;1.07;;;1.00;;
64932;SDS011;51446;53.850;10.662;2023-04-24T07:48:45;1.52;;;1.00;;
64932;SDS011;51446;53.850;10.662;2023-04-24T07:51:12;1.10;;;1.00;;
64932;SDS011;51446;53.850;10.662;2023-04-24T07:53:38;2.93;;;1.13;;
64932;SDS011;51446;53.850;10.662;2023-04-24T07:56:05;0.85;;;0.80;;
64932;SDS011;51446;53.850;10.662;2023-04-24T07:58:30;0.93;;;0.80;;
64932;SDS011;51446;53.850;10.662;2023-04-24T08:00:56;1.67;;;0.80;;
64932;SDS011;51446;53.850;10.662;2023-04-24T08:03:21;1.77;;;0.90;;
64932;SDS011;51446;53.850;10.662;2023-04-24T08:05:46;1.30;;;1.00;;
64932;SDS011;51446;53.850;10.662;2023-04-24T08:08:12;0.83;;;0.80;;
64932;SDS011;51446;53.850;10.662;2023-04-24T08:10:38;1.10;;;1.00;;
64932;SDS011;51446;53.850;10.662;2023-04-24T08:13:03;1.10;;;0.83;;
64932;SDS011;51446;53.850;10.662;2023-04-24T08:15:29;2.20;;;1.10;;
64932;SDS011;51446;53.850;10.662;2023-04-24T08:17:54;0.90;;;0.90;;
64932;SDS011;51446;53.850;10.662;2023-04-24T08:20:19;1.50;;;1.10;;
64932;SDS011;51446;53.850;10.662;2023-04-24T08:22:44;1.20;;;1.00;;
64932;SDS011;51446;53.850;10.662;2023-04-24T08:25:12;1.35;;;0.90;;
64932;SDS011;51446;53.850;10.662;2023-04-24T08:27:38;1.67;;;0.82;;
64932;SDS011;51446;53.850;10.662;2023-04-24T08:30:04;1.33;;;0.90;;
64932;SDS011;51446;53.850;10.662;2023-04-24T08:32:30;2.70;;;1.00;;
64932;SDS011;51446;53.850;10.662;2023-04-24T08:34:55;1.67;;;1.00;;
64932;SDS011;51446;53.850;10.662;2023-04-24T08:37:21;1.00;;;1.00;;
64932;SDS011;51446;53.850;10.662;2023-04-24T08:39:47;1.50;;;1.10;;
64932;SDS011;51446;53.850;10.662;2023-04-24T08:42:12;1.43;;;0.90;;
64932;SDS011;51446;53.850;10.662;2023-04-24T08:44:39;1.17;;;1.00;;
64932;SDS011;51446;53.850;10.662;2023-04-24T08:47:05;1.60;;;1.03;;
64932;SDS011;51446;53.850;10.662;2023-04-24T08:49:33;1.65;;;1.10;;
64932;SDS011;51446;53.850;10.662;2023-04-24T08:51:58;1.10;;;1.00;;
64932;SDS011;51446;53.850;10.662;2023-04-24T08:54:25;1.52;;;0.90;;
64932;SDS011;51446;53.850;10.662;2023-04-24T08:56:50;1.03;;;0.80;;
64932;SDS011;51446;53.850;10.662;2023-04-24T08:59:18;1.55;;;1.00;;
64932;SDS011;51446;53.850;10.662;2023-04-24T09:01:45;1.30;;;0.90;;
64932;SDS011;51446;53.850;10.662;2023-04-24T09:04:11;1.30;;;0.90;;
64932;SDS011;51446;53.850;10.662;2023-04-24T09:06:39;1.25;;;0.90;;
64932;SDS011;51446;53.850;10.662;2023-04-24T09:09:05;1.30;;;1.00;;
64932;SDS011;51446;53.850;10.662;2023-04-24T09:11:31;0.98;;;0.90;;
64932;SDS011;51446;53.850;10.662;2023-04-24T09:13:57;1.20;;;0.80;;
64932;SDS011;51446;53.850;10.662;2023-04-24T09:16:24;2.53;;;1.20;;
64932;SDS011;51446;53.850;10.662;2023-04-24T09:18:51;1.60;;;1.20;;
64932;SDS011;51446;53.850;10.662;2023-04-24T09:21:16;1.37;;;1.10;;
64932;SDS011;51446;53.850;10.662;2023-04-24T09:23:41;2.60;;;0.93;;
64932;SDS011;51446;53.850;10.662;2023-04-24T09:26:07;1.10;;;1.00;;
64932;SDS011;51446;53.850;10.662;2023-04-24T09:28:38;1.57;;;1.00;;
64932;SDS011;51446;53.850;10.662;2023-04-24T09:33:31;3.42;;;1.20;;
64932;SDS011;51446;53.850;10.662;2023-04-24T09:35:57;1.93;;;1.30;;
64932;SDS011;51446;53.850;10.662;2023-04-24T09:38:30;1.33;;;1.23;;
64932;SDS011;51446;53.850;10.662;2023-04-24T09:41:05;1.60;;;1.50;;
64932;SDS011;51446;53.850;10.662;2023-04-24T09:43:32;1.50;;;1.40;;
64932;SDS011;51446;53.850;10.662;2023-04-24T09:45:59;2.80;;;1.45;;
64932;SDS011;51446;53.850;10.662;2023-04-24T09:48:29;3.37;;;1.30;;
64932;SDS011;51446;53.850;10.662;2023-04-24T09:50:56;2.45;;;1.50;;
64932;SDS011;51446;53.850;10.662;2023-04-24T09:53:24;1.87;;;1.70;;
64932;SDS011;51446;53.850;10.662;2023-04-24T09:55:51;1.95;;;1.67;;
64932;SDS011;51446;53.850;10.662;2023-04-24T09:58:18;2.30;;;2.10;;
64932;SDS011;51446;53.850;10.662;2023-04-24T10:00:43;3.05;;;2.10;;
64932;SDS011;51446;53.850;10.662;2023-04-24T10:03:10;3.03;;;2.20;;
64932;SDS011;51446;53.850;10.662;2023-04-24T10:05:36;4.25;;;2.20;;
64932;SDS011;51446;53.850;10.662;2023-04-24T10:08:07;2.58;;;2.38;;
64932;SDS011;51446;53.850;10.662;2023-04-24T10:10:42;3.33;;;2.30;;
64932;SDS011;51446;53.850;10.662;2023-04-24T10:13:11;3.20;;;2.90;;
64932;SDS011;51446;53.850;10.662;2023-04-24T10:15:38;4.35;;;2.85;;
64932;SDS011;51446;53.850;10.662;2023-04-24T10:18:05;3.13;;;2.83;;
64932;SDS011;51446;53.850;10.662;2023-04-24T10:20:31;2.85;;;2.42;;
64932;SDS011;51446;53.850;10.662;2023-04-24T10:22:58;2.90;;;1.90;;
64932;SDS011;51446;53.850;10.662;2023-04-24T10:25:25;2.95;;;1.70;;
64932;SDS011;51446;53.850;10.662;2023-04-24T10:27:52;2.95;;;2.10;;
64932;SDS011;51446;53.850;10.662;2023-04-24T10:30:22;2.65;;;2.13;;
64932;SDS011;51446;53.850;10.662;2023-04-24T10:32:47;2.90;;;2.13;;
64932;SDS011;51446;53.850;10.662;2023-04-24T10:35:13;4.10;;;2.67;;
64932;SDS011;51446;53.850;10.662;2023-04-24T10:37:40;4.07;;;2.40;;
64932;SDS011;51446;53.850;10.662;2023-04-24T10:40:09;3.42;;;2.22;;
64932;SDS011;51446;53.850;10.662;2023-04-24T10:42:39;2.85;;;2.60;;
64932;SDS011;51446;53.850;10.662;2023-04-24T10:45:06;4.63;;;2.70;;
64932;SDS011;51446;53.850;10.662;2023-04-24T10:47:41;3.10;;;2.70;;
64932;SDS011;51446;53.850;10.662;2023-04-24T10:50:08;3.15;;;2.55;;
64932;SDS011;51446;53.850;10.662;2023-04-24T10:52:44;2.40;;;2.20;;
64932;SDS011;51446;53.850;10.662;2023-04-24T10:55:12;3.38;;;2.42;;
64932;SDS011;51446;53.850;10.662;2023-04-24T10:57:39;3.75;;;2.05;;
64932;SDS011;51446;53.850;10.662;2023-04-24T11:02:40;2.30;;;2.10;;
64932;SDS011;51446;53.850;10.662;2023-04-24T11:05:14;3.78;;;2.20;;
64932;SDS011;51446;53.850;10.662;2023-04-24T11:08:22;2.40;;;1.93;;
64932;SDS011;51446;53.850;10.662;2023-04-24T11:10:44;3.17;;;2.03;;
64932;SDS011;51446;53.850;10.662;2023-04-24T11:13:10;2.90;;;2.40;;
64932;SDS011;51446;53.850;10.662;2023-04-24T11:15:41;4.88;;;1.92;;
64932;SDS011;51446;53.850;10.662;2023-04-24T11:18:11;3.13;;;2.08;;
64932;SDS011;51446;53.850;10.662;2023-04-24T11:20:41;4.70;;;2.20;;
64932;SDS011;51446;53.850;10.662;2023-04-24T11:23:07;2.65;;;2.45;;
64932;SDS011;51446;53.850;10.662;2023-04-24T11:25:33;3.78;;;2.67;;
64932;SDS011;51446;53.850;10.662;2023-04-24T11:28:04;3.97;;;3.22;;
64932;SDS011;51446;53.850;10.662;2023-04-24T11:30:30;3.17;;;2.55;;
64932;SDS011;51446;53.850;10.662;2023-04-24T11:32:57;3.53;;;2.27;;
64932;SDS011;51446;53.850;10.662;2023-04-24T11:35:30;2.88;;;2.45;;
64932;SDS011;51446;53.850;10.662;2023-04-24T11:38:02;2.90;;;2.47;;
64932;SDS011;51446;53.850;10.662;2023-04-24T11:40:28;3.40;;;2.90;;
64932;SDS011;51446;53.850;10.662;2023-04-24T11:42:53;5.33;;;2.70;;
64932;SDS011;51446;53.850;10.662;2023-04-24T11:45:29;3.77;;;3.03;;
64932;SDS011;51446;53.850;10.662;2023-04-24T11:47:55;3.33;;;3.03;;
64932;SDS011;51446;53.850;10.662;2023-04-24T11:50:22;3.77;;;3.27;;
64932;SDS011;51446;53.850;10.662;2023-04-24T11:52:48;6.20;;;3.50;;
64932;SDS011;51446;53.850;10.662;2023-04-24T11:57:42;6.10;;;3.40;;
64932;SDS011;51446;53.850;10.662;2023-04-24T12:00:14;4.82;;;3.60;;
64932;SDS011;51446;53.850;10.662;2023-04-24T12:02:47;4.82;;;3.58;;
64932;SDS011;51446;53.850;10.662;2023-04-24T12:05:20;5.78;;;3.30;;
64932;SDS011;51446;53.850;10.662;2023-04-24T12:07:45;5.97;;;4.20;;
64932;SDS011;51446;53.850;10.662;2023-04-24T12:10:11;5.60;;;4.00;;
64932;SDS011;51446;53.850;10.662;2023-04-24T12:12:36;5.20;;;3.83;;
64932;SDS011;51446;53.850;10.662;2023-04-24T12:15:06;5.63;;;3.87;;
64932;SDS011;51446;53.850;10.662;2023-04-24T12:17:33;5.77;;;3.83;;
64932;SDS011;51446;53.850;10.662;2023-04-24T12:20:06;5.30;;;3.70;;
64932;SDS011;51446;53.850;10.662;2023-04-24T12:22:46;6.50;;;3.85;;
64932;SDS011;51446;53.850;10.662;2023-04-24T12:25:12;7.28;;;4.28;;
64932;SDS011;51446;53.850;10.662;2023-04-24T12:27:37;5.13;;;4.35;;
64932;SDS011;51446;53.850;10.662;2023-04-24T12:30:03;6.80;;;4.30;;
64932;SDS011;51446;53.850;10.662;2023-04-24T12:32:30;7.37;;;4.53;;
64932;SDS011;51446;53.850;10.662;2023-04-24T12:34:57;7.20;;;4.55;;
64932;SDS011;51446;53.850;10.662;2023-04-24T12:37:23;6.97;;;4.80;;
64932;SDS011;51446;53.850;10.662;2023-04-24T12:40:09;6.95;;;4.85;;
64932;SDS011;51446;53.850;10.662;2023-04-24T12:42:41;6.45;;;5.13;;
64932;SDS011;51446;53.850;10.662;2023-04-24T12:45:12;8.77;;;4.73;;
64932;SDS011;51446;53.850;10.662;2023-04-24T12:47:38;6.82;;;4.78;;
64932;SDS011;51446;53.850;10.662;2023-04-24T12:50:05;7.13;;;4.90;;
64932;SDS011;51446;53.850;10.662;2023-04-24T12:52:32;8.18;;;4.30;;
64932;SDS011;51446;53.850;10.662;2023-04-24T12:54:58;4.73;;;3.93;;
64932;SDS011;51446;53.850;10.662;2023-04-24T12:57:25;6.30;;;4.10;;
64932;SDS011;51446;53.850;10.662;2023-04-24T12:59:55;6.53;;;4.32;;
64932;SDS011;51446;53.850;10.662;2023-04-24T13:02:21;5.23;;;4.47;;
64932;SDS011;51446;53.850;10.662;2023-04-24T13:04:50;6.35;;;4.80;;
64932;SDS011;51446;53.850;10.662;2023-04-24T13:07:16;6.53;;;4.50;;
64932;SDS011;51446;53.850;10.662;2023-04-24T13:09:42;6.93;;;4.90;;
64932;SDS011;51446;53.850;10.662;2023-04-24T13:12:09;5.33;;;4.30;;
64932;SDS011;51446;53.850;10.662;2023-04-24T13:14:34;4.90;;;4.20;;
64932;SDS011;51446;53.850;10.662;2023-04-24T13:17:00;6.47;;;3.83;;
64932;SDS011;51446;53.850;10.662;2023-04-24T13:19:26;6.97;;;4.45;;
64932;SDS011;51446;53.850;10.662;2023-04-24T13:21:52;5.93;;;4.43;;
64932;SDS011;51446;53.850;10.662;2023-04-24T13:24:20;6.18;;;4.50;;
64932;SDS011;51446;53.850;10.662;2023-04-24T13:26:45;8.07;;;4.67;;
64932;SDS011;51446;53.850;10.662;2023-04-24T13:29:10;6.27;;;4.30;;
64932;SDS011;51446;53.850;10.662;2023-04-24T13:31:35;4.88;;;4.28;;
64932;SDS011;51446;53.850;10.662;2023-04-24T13:34:02;5.43;;;4.13;;
64932;SDS011;51446;53.850;10.662;2023-04-24T13:36:27;5.17;;;4.07;;
64932;SDS011;51446;53.850;10.662;2023-04-24T13:38:53;6.55;;;4.60;;
64932;SDS011;51446;53.850;10.662;2023-04-24T13:41:18;4.90;;;4.30;;
64932;SDS011;51446;53.850;10.662;2023-04-24T13:43:44;5.73;;;4.00;;
64932;SDS011;51446;53.850;10.662;2023-04-24T13:46:09;4.90;;;3.63;;
64932;SDS011;51446;53.850;10.662;2023-04-24T13:48:34;4.50;;;3.97;;
64932;SDS011;51446;53.850;10.662;2023-04-24T13:50:59;4.73;;;3.80;;
64932;SDS011;51446;53.850;10.662;2023-04-24T13:53:25;5.03;;;3.50;;
64932;SDS011;51446;53.850;10.662;2023-04-24T13:55:50;7.03;;;3.37;;
64932;SDS011;51446;53.850;10.662;2023-04-24T13:58:16;4.65;;;3.10;;
64932;SDS011;51446;53.850;10.662;2023-04-24T14:00:41;3.50;;;3.07;;
64932;SDS011;51446;53.850;10.662;2023-04-24T14:03:06;4.37;;;3.27;;
64932;SDS011;51446;53.850;10.662;2023-04-24T14:05:31;4.20;;;3.80;;
64932;SDS011;51446;53.850;10.662;2023-04-24T14:07:57;5.83;;;3.73;;
64932;SDS011;51446;53.850;10.662;2023-04-24T14:10:22;4.17;;;3.67;;
64932;SDS011;51446;53.850;10.662;2023-04-24T14:12:47;4.43;;;3.73;;
64932;SDS011;51446;53.850;10.662;2023-04-24T14:15:13;7.20;;;3.37;;
64932;SDS011;51446;53.850;10.662;2023-04-24T14:17:38;3.97;;;3.17;;
64932;SDS011;51446;53.850;10.662;2023-04-24T14:20:04;4.28;;;3.10;;
64932;SDS011;51446;53.850;10.662;2023-04-24T14:22:29;3.03;;;2.42;;
64932;SDS011;51446;53.850;10.662;2023-04-24T14:24:55;3.88;;;3.10;;
64932;SDS011;51446;53.850;10.662;2023-04-24T14:27:20;4.70;;;3.63;;
64932;SDS011;51446;53.850;10.662;2023-04-24T14:29:45;4.77;;;3.77;;
64932;SDS011;51446;53.850;10.662;2023-04-24T14:32:11;5.90;;;4.30;;
64932;SDS011;51446;53.850;10.662;2023-04-24T14:34:36;4.40;;;3.60;;
64932;SDS011;51446;53.850;10.662;2023-04-24T14:37:01;4.53;;;3.60;;